Time;durP1;ratioP1;P1;durP2;ratioP2;P2;SDS_P1;SDS_P2;PMS_P1;PMS_P2;Temp;Humidity;BMP_temperature;BMP_pressure;BME280_temperature;BME280_humidity;BME280_pressure;Samples;Min_cycle;Max_cycle;Signal;HPM_P1;HPM_P2
2022/11/21 00:00:52;;;;;;;13.50;9.98;;;;;;;16.62;99.56;100789.16;5043530;28;20057;-71
2022/11/21 00:03:19;;;;;;;19.02;10.75;;;;;;;16.61;99.59;100791.09;5046638;28;20045;-69
2022/11/21 00:05:48;;;;;;;18.23;9.75;;;;;;;16.57;99.30;100775.97;5044842;28;20099;-69
2022/11/21 00:08:18;;;;;;;13.88;9.25;;;;;;;16.65;99.34;100771.56;5037056;28;20045;-71
2022/11/21 00:10:45;;;;;;;14.97;9.93;;;;;;;16.66;99.57;100785.38;5032846;28;20532;-69
2022/11/21 00:13:17;;;;;;;12.18;10.23;;;;;;;16.64;99.02;100781.19;5036095;28;20060;-69
2022/11/21 00:15:45;;;;;;;11.48;10.00;;;;;;;16.68;99.39;100777.41;5036039;28;20049;-69
2022/11/21 00:18:12;;;;;;;10.90;9.85;;;;;;;16.78;99.07;100760.28;5033609;28;20049;-69
2022/11/21 00:20:40;;;;;;;12.73;10.30;;;;;;;16.78;99.21;100763.13;5040607;28;20063;-69
2022/11/21 00:23:08;;;;;;;15.77;9.57;;;;;;;16.91;99.14;100764.22;5036370;28;20055;-69
2022/11/21 00:25:35;;;;;;;18.90;10.02;;;;;;;16.92;98.73;100765.06;5036198;28;20054;-70
2022/11/21 00:28:03;;;;;;;16.23;10.10;;;;;;;16.93;98.60;100749.81;5051746;28;20056;-70
2022/11/21 00:30:30;;;;;;;15.32;9.90;;;;;;;16.99;98.24;100759.81;5055959;28;20049;-71
2022/11/21 00:33:01;;;;;;;20.80;12.18;;;;;;;16.99;98.16;100768.28;5036850;28;20064;-71
2022/11/21 00:35:30;;;;;;;20.83;11.70;;;;;;;16.92;98.10;100756.59;5049700;28;20056;-70
2022/11/21 00:37:57;;;;;;;16.48;11.90;;;;;;;16.90;98.04;100761.75;5034060;28;20412;-71
2022/11/21 00:40:24;;;;;;;17.92;9.75;;;;;;;16.88;98.18;100759.22;5043443;28;20045;-71
2022/11/21 00:42:50;;;;;;;19.67;10.75;;;;;;;16.87;98.05;100751.09;5042621;28;20263;-69
2022/11/21 00:45:17;;;;;;;21.00;10.27;;;;;;;16.92;97.99;100757.47;5042280;28;20045;-70
2022/11/21 00:47:49;;;;;;;17.75;9.45;;;;;;;17.00;97.78;100755.84;5043236;28;20051;-70
2022/11/21 00:50:16;;;;;;;14.95;9.60;;;;;;;17.07;97.93;100756.25;5040038;28;20053;-69
2022/11/21 00:52:43;;;;;;;18.85;10.55;;;;;;;17.06;97.68;100743.31;5040708;28;20049;-69
2022/11/21 00:55:10;;;;;;;17.00;10.18;;;;;;;17.13;97.16;100748.47;5045091;28;20053;-69
2022/11/21 00:57:37;;;;;;;19.15;9.68;;;;;;;17.15;97.16;100746.19;5041463;28;20492;-68
2022/11/21 01:00:04;;;;;;;16.23;10.45;;;;;;;17.24;96.99;100747.09;5039601;28;20427;-72
2022/11/21 01:02:31;;;;;;;24.52;11.23;;;;;;;17.19;96.60;100750.84;5045916;28;20048;-72
2022/11/21 01:04:58;;;;;;;24.02;9.43;;;;;;;17.23;97.08;100742.56;5043894;28;20488;-68
2022/11/21 01:07:25;;;;;;;16.55;10.00;;;;;;;17.19;96.71;100735.91;5039819;28;20512;-70
2022/11/21 01:09:52;;;;;;;20.70;10.32;;;;;;;17.12;96.27;100738.34;5035805;28;20087;-72
2022/11/21 01:12:19;;;;;;;19.73;10.43;;;;;;;17.14;96.49;100739.72;5041395;28;20050;-72
2022/11/21 01:14:46;;;;;;;15.50;10.80;;;;;;;17.18;96.51;100740.72;5040386;28;20045;-74
2022/11/21 01:17:13;;;;;;;19.90;10.40;;;;;;;17.25;96.55;100741.09;5033809;28;20049;-75
2022/11/21 01:19:40;;;;;;;18.95;11.52;;;;;;;17.25;96.18;100743.94;5044830;28;20065;-73
2022/11/21 01:22:07;;;;;;;17.60;9.98;;;;;;;17.32;96.27;100739.84;5041655;28;20049;-73
2022/11/21 01:24:34;;;;;;;14.00;10.80;;;;;;;17.31;95.85;100743.81;5036305;28;20056;-73
2022/11/21 01:27:01;;;;;;;17.90;10.73;;;;;;;17.26;96.09;100720.22;5032702;28;20415;-73
2022/11/21 01:29:28;;;;;;;16.88;9.20;;;;;;;17.42;95.89;100736.75;5035955;28;20128;-70
2022/11/21 01:31:54;;;;;;;15.65;10.60;;;;;;;17.43;95.53;100744.88;5041413;28;20052;-70
2022/11/21 01:34:21;;;;;;;22.55;10.63;;;;;;;17.45;95.19;100734.09;5037480;28;20045;-70
2022/11/21 01:36:48;;;;;;;18.85;9.80;;;;;;;17.31;95.10;100719.25;5049685;28;20049;-70
2022/11/21 01:39:15;;;;;;;10.32;8.90;;;;;;;17.30;94.93;100720.41;5040176;28;20049;-71
2022/11/21 01:41:44;;;;;;;12.95;10.00;;;;;;;17.19;94.64;100719.81;5047410;28;20055;-70
2022/11/21 01:44:23;;;;;;;11.55;9.45;;;;;;;17.15;94.93;100715.97;5042252;28;20049;-73
2022/11/21 01:46:52;;;;;;;13.13;9.15;;;;;;;17.15;94.97;100720.78;5037401;28;20052;-72
2022/11/21 01:49:29;;;;;;;19.80;9.75;;;;;;;17.06;95.00;100732.03;5041404;28;20480;-72
2022/11/21 01:52:10;;;;;;;11.38;8.77;;;;;;;16.94;94.79;100712.81;5040400;28;20049;-72
2022/11/21 01:54:45;;;;;;;13.15;9.00;;;;;;;16.90;95.21;100723.09;5043696;28;20049;-72
2022/11/21 01:57:48;;;;;;;15.60;9.60;;;;;;;16.76;95.34;100713.84;5032041;28;20049;-71
2022/11/21 02:00:23;;;;;;;14.15;8.70;;;;;;;16.93;95.42;100715.97;5001690;28;20054;-71
2022/11/21 02:02:55;;;;;;;9.43;8.45;;;;;;;16.96;95.11;100715.34;5029246;28;20050;-71
2022/11/21 02:05:26;;;;;;;12.65;8.95;;;;;;;16.96;95.06;100704.88;5040477;28;20534;-71
2022/11/21 02:07:57;;;;;;;9.00;8.10;;;;;;;17.03;94.84;100693.97;5032341;28;20132;-70
2022/11/21 02:10:25;;;;;;;13.77;10.32;;;;;;;17.22;95.04;100709.88;5033919;28;20045;-69
2022/11/21 02:12:54;;;;;;;14.32;8.50;;;;;;;17.11;93.99;100712.13;5034792;28;20485;-71
2022/11/21 02:15:24;;;;;;;12.48;9.60;;;;;;;16.90;94.01;100691.22;5033264;28;20053;-72
2022/11/21 02:17:51;;;;;;;11.60;8.40;;;;;;;16.89;94.42;100678.25;5047101;28;20041;-75
2022/11/21 02:20:21;;;;;;;14.43;8.40;;;;;;;16.92;94.11;100692.59;5031562;28;20049;-75
2022/11/21 02:23:06;;;;;;;14.15;9.98;;;;;;;16.82;94.09;100692.84;5031573;28;20053;-70
2022/11/21 02:25:36;;;;;;;10.23;9.32;;;;;;;16.89;94.56;100689.53;5037680;28;20059;-70
2022/11/21 02:28:06;;;;;;;10.77;8.43;;;;;;;16.80;94.18;100690.31;5037003;28;20050;-71
2022/11/21 02:30:37;;;;;;;19.65;8.68;;;;;;;16.71;94.23;100686.53;5034584;28;20151;-72
2022/11/21 02:33:05;;;;;;;20.05;10.02;;;;;;;16.68;94.73;100675.06;5038271;28;20503;-76
2022/11/21 02:35:35;;;;;;;15.88;9.93;;;;;;;16.67;94.87;100667.78;5035381;28;20046;-67
2022/11/21 02:38:14;;;;;;;;;;;;;;;16.30;95.38;100670.56;5035040;28;20049;-68
2022/11/21 02:40:54;;;;;;;16.13;9.82;;;;;;;16.50;95.50;100668.44;5034352;28;20379;-70
2022/11/21 02:43:20;;;;;;;;;;;;;;;16.30;96.63;100662.13;5040851;28;20057;-67
2022/11/21 02:45:47;;;;;;;14.82;9.73;;;;;;;16.47;96.10;100653.00;5049362;28;19921;-68
2022/11/21 02:48:14;;;;;;;15.80;9.20;;;;;;;16.41;96.29;100648.66;5047454;28;20052;-66
2022/11/21 02:50:43;;;;;;;21.45;10.90;;;;;;;16.48;96.12;100656.69;5049961;28;20478;-66
2022/11/21 02:53:14;;;;;;;16.70;9.82;;;;;;;16.50;96.14;100651.53;5037992;28;20079;-66
2022/11/21 02:55:42;;;;;;;23.50;11.27;;;;;;;16.59;96.50;100652.47;5040060;28;20040;-67
2022/11/21 02:58:10;;;;;;;16.08;9.80;;;;;;;16.63;96.14;100647.84;5042921;28;20487;-66
2022/11/21 03:00:39;;;;;;;16.77;10.82;;;;;;;16.66;96.02;100627.47;5036358;28;20049;-66
2022/11/21 03:03:06;;;;;;;16.58;9.93;;;;;;;16.81;96.23;100634.75;5050671;28;20518;-68
2022/11/21 03:05:33;;;;;;;16.42;9.85;;;;;;;16.89;95.64;100630.31;5053098;28;20057;-66
2022/11/21 03:08:00;;;;;;;16.58;10.48;;;;;;;16.94;95.47;100635.84;5043496;28;20052;-66
2022/11/21 03:10:27;;;;;;;15.98;9.55;;;;;;;16.94;94.97;100638.66;5039023;28;20057;-67
2022/11/21 03:13:00;;;;;;;18.15;10.18;;;;;;;16.90;94.95;100629.16;5043378;28;20519;-66
2022/11/21 03:15:29;;;;;;;15.45;9.38;;;;;;;17.01;95.08;100622.09;5045552;28;20053;-67
2022/11/21 03:17:57;;;;;;;18.95;9.50;;;;;;;16.97;94.32;100612.63;5035256;28;20049;-66
2022/11/21 03:20:24;;;;;;;12.43;8.40;;;;;;;16.98;94.49;100611.47;5035581;28;20057;-67
2022/11/21 03:22:52;;;;;;;14.05;9.77;;;;;;;16.95;94.33;100606.47;5038145;28;20041;-67
2022/11/21 03:25:19;;;;;;;12.07;9.57;;;;;;;16.88;94.31;100600.44;5039644;28;20052;-66
2022/11/21 03:27:49;;;;;;;19.17;9.13;;;;;;;16.91;94.58;100599.81;5033808;28;20053;-66
2022/11/21 03:30:16;;;;;;;;;;;;;;;16.67;95.06;100588.81;5034177;28;20514;-66
2022/11/21 03:32:43;;;;;;;12.80;10.68;;;;;;;16.87;94.63;100591.16;5046198;28;20276;-67
2022/11/21 03:35:10;;;;;;;15.95;10.07;;;;;;;16.83;94.77;100586.50;5042184;28;20084;-66
2022/11/21 03:37:37;;;;;;;16.02;9.02;;;;;;;16.63;94.60;100553.97;5051485;28;20053;-66
2022/11/21 03:40:04;;;;;;;11.27;9.07;;;;;;;16.67;95.13;100572.72;5048333;28;20518;-66
2022/11/21 03:42:31;;;;;;;10.60;8.65;;;;;;;16.75;95.30;100571.16;5037621;28;20132;-66
2022/11/21 03:44:58;;;;;;;10.95;9.05;;;;;;;16.86;95.19;100555.66;5049060;28;20045;-67
2022/11/21 03:47:26;;;;;;;9.77;8.88;;;;;;;16.92;95.06;100571.28;5039150;28;20041;-67
2022/11/21 03:49:53;;;;;;;11.30;8.30;;;;;;;16.93;94.76;100553.19;5040826;28;20079;-66
2022/11/21 03:52:20;;;;;;;20.17;9.10;;;;;;;16.86;94.88;100546.34;5041137;28;20046;-66
2022/11/21 03:54:47;;;;;;;16.27;8.98;;;;;;;16.88;95.28;100541.22;5043684;28;20052;-66
2022/11/21 03:57:14;;;;;;;14.35;8.45;;;;;;;16.96;95.07;100549.72;5052608;28;20048;-66
2022/11/21 03:59:41;;;;;;;14.95;9.10;;;;;;;16.98;94.73;100557.84;5054915;28;20393;-66
2022/11/21 04:02:08;;;;;;;19.42;10.95;;;;;;;17.02;94.80;100547.59;5049102;28;20491;-66
2022/11/21 04:04:34;;;;;;;9.98;9.00;;;;;;;17.05;94.43;100555.41;5044335;28;20412;-65
2022/11/21 04:07:01;;;;;;;14.32;9.65;;;;;;;16.97;94.73;100548.56;5040013;28;20530;-66
2022/11/21 04:09:28;;;;;;;15.00;9.68;;;;;;;16.95;94.68;100538.75;5040983;28;20055;-66
2022/11/21 04:11:55;;;;;;;9.95;8.35;;;;;;;17.03;94.67;100538.81;5033704;28;20060;-66
2022/11/21 04:14:22;;;;;;;10.02;8.50;;;;;;;16.97;94.39;100536.47;5033987;28;20050;-66
2022/11/21 04:16:49;;;;;;;10.27;9.27;;;;;;;16.89;94.89;100534.41;5035402;28;20041;-66
2022/11/21 04:19:16;;;;;;;10.68;9.00;;;;;;;16.91;94.92;100518.00;5042616;28;20045;-66
2022/11/21 04:21:42;;;;;;;12.20;9.40;;;;;;;16.89;95.09;100520.28;5048527;28;20057;-66
2022/11/21 04:24:09;;;;;;;14.57;9.90;;;;;;;16.85;95.02;100528.56;5039019;28;20052;-66
2022/11/21 04:26:36;;;;;;;12.65;9.73;;;;;;;16.76;95.39;100525.72;5051236;28;20049;-66
2022/11/21 04:29:03;;;;;;;18.52;10.23;;;;;;;16.58;95.03;100507.84;5068200;28;20052;-67
2022/11/21 04:31:30;;;;;;;21.70;9.52;;;;;;;16.65;95.78;100507.38;5057734;28;20136;-67
2022/11/21 04:33:57;;;;;;;14.77;9.85;;;;;;;16.79;95.83;100525.09;5045633;28;20060;-65
2022/11/21 04:36:24;;;;;;;22.35;9.20;;;;;;;16.74;95.73;100504.59;5045432;28;20045;-66
2022/11/21 04:38:51;;;;;;;16.70;9.85;;;;;;;16.73;95.72;100503.78;5045710;28;20064;-66
2022/11/21 04:41:17;;;;;;;9.70;8.85;;;;;;;16.69;95.82;100494.31;5037848;28;20053;-66
2022/11/21 04:43:44;;;;;;;9.95;8.60;;;;;;;16.78;95.57;100511.28;5036063;28;20053;-67
2022/11/21 04:46:11;;;;;;;15.07;9.10;;;;;;;16.71;95.95;100494.78;5038559;28;20049;-66
2022/11/21 04:48:38;;;;;;;15.70;9.10;;;;;;;16.73;96.30;100492.50;5049136;28;20045;-66
2022/11/21 04:51:07;;;;;;;16.00;10.20;;;;;;;16.81;96.14;100488.91;5041188;28;20081;-67
2022/11/21 04:53:34;;;;;;;10.77;9.35;;;;;;;16.84;95.89;100500.72;5041759;28;20044;-67
2022/11/21 04:56:08;;;;;;;14.32;9.68;;;;;;;16.89;96.18;100504.22;5038633;28;20063;-66
2022/11/21 04:58:35;;;;;;;13.63;10.30;;;;;;;16.99;96.04;100500.28;5039756;28;20041;-66
2022/11/21 05:01:07;;;;;;;14.70;8.65;;;;;;;16.99;95.58;100478.56;5049451;28;20063;-65
2022/11/21 05:03:35;;;;;;;17.65;9.90;;;;;;;16.97;95.56;100474.41;5036225;28;20095;-66
2022/11/21 05:06:02;;;;;;;16.60;9.50;;;;;;;16.99;95.73;100472.91;5042385;28;20061;-66
2022/11/21 05:08:28;;;;;;;10.23;9.13;;;;;;;16.96;95.28;100481.19;5051925;28;20063;-65
2022/11/21 05:13:41;;;;;;;18.45;10.48;;;;;;;16.84;96.26;100476.16;5040404;28;20056;-66
2022/11/21 05:16:08;;;;;;;18.27;15.02;;;;;;;16.89;95.67;100478.00;5039474;28;20523;-66
2022/11/21 05:18:35;;;;;;;12.88;10.75;;;;;;;16.79;95.70;100479.97;5038409;28;20073;-67
2022/11/21 05:21:02;;;;;;;9.63;8.80;;;;;;;16.73;96.00;100444.56;5035290;28;20423;-67
2022/11/21 05:23:29;;;;;;;9.00;8.13;;;;;;;16.77;96.14;100470.16;5040739;28;20492;-67
2022/11/21 05:25:56;;;;;;;14.15;8.98;;;;;;;16.72;96.60;100473.09;5043944;28;20049;-67
2022/11/21 05:28:23;;;;;;;13.15;9.45;;;;;;;16.71;96.50;100458.13;5038453;28;20041;-67
2022/11/21 05:30:49;;;;;;;14.15;12.80;;;;;;;16.77;96.63;100459.69;5038903;28;20056;-67
2022/11/21 05:33:16;;;;;;;9.65;8.50;;;;;;;16.88;96.57;100448.13;5039440;28;20056;-67
2022/11/21 05:35:44;;;;;;;13.52;9.82;;;;;;;17.01;96.45;100458.47;5039396;28;20073;-66
2022/11/21 05:38:11;;;;;;;14.13;10.20;;;;;;;17.07;96.30;100445.06;5031973;28;20056;-67
2022/11/21 05:40:38;;;;;;;17.02;9.32;;;;;;;17.11;95.79;100441.25;5032627;28;20057;-66
2022/11/21 05:45:51;;;;;;;12.68;9.48;;;;;;;16.94;95.63;100424.28;5035577;28;20049;-66
2022/11/21 05:48:20;;;;;;;10.50;9.63;;;;;;;16.98;95.83;100425.28;5032660;28;20049;-66
2022/11/21 05:50:50;;;;;;;10.70;8.80;;;;;;;16.81;95.97;100387.38;5037257;28;20049;-66
2022/11/21 05:53:17;;;;;;;9.07;8.40;;;;;;;16.83;96.16;100383.44;5041831;28;20309;-66
2022/11/21 05:55:45;;;;;;;9.63;8.82;;;;;;;16.78;96.26;100373.09;5044103;28;20048;-66
2022/11/21 05:58:12;;;;;;;9.70;9.00;;;;;;;16.65;96.63;100372.06;5036419;28;20046;-66
2022/11/21 06:00:38;;;;;;;10.00;9.50;;;;;;;16.50;96.94;100369.66;5036178;28;20524;-64
2022/11/21 06:05:57;;;;;;;10.20;9.32;;;;;;;16.41;96.98;100403.44;5042230;28;20081;-66
2022/11/21 06:08:24;;;;;;;10.70;9.88;;;;;;;16.31;96.96;100398.09;5032998;28;20045;-66
2022/11/21 06:10:51;;;;;;;10.20;9.35;;;;;;;16.18;96.78;100390.56;5032799;28;20049;-66
2022/11/21 06:13:21;;;;;;;11.38;10.32;;;;;;;16.14;97.63;100383.88;5041107;28;20046;-66
2022/11/21 06:15:53;;;;;;;11.10;10.10;;;;;;;16.16;98.00;100376.78;5046783;28;20081;-65
2022/11/21 06:18:20;;;;;;;11.30;10.38;;;;;;;16.27;98.73;100381.00;5038037;28;20052;-65
2022/11/21 06:20:47;;;;;;;12.90;10.57;;;;;;;16.37;98.57;100362.97;5043885;28;20061;-65
2022/11/21 06:23:14;;;;;;;10.85;9.73;;;;;;;16.40;99.16;100336.94;5051677;28;20098;-66
2022/11/21 06:25:42;;;;;;;9.80;9.10;;;;;;;16.36;99.00;100316.22;5040265;28;20503;-66
2022/11/21 06:28:10;;;;;;;10.02;9.32;;;;;;;16.46;99.17;100321.56;5042457;28;20056;-66
2022/11/21 06:30:37;;;;;;;10.40;9.38;;;;;;;16.45;98.74;100361.34;5041047;28;20403;-68
2022/11/21 06:33:05;;;;;;;13.55;9.68;;;;;;;16.46;98.45;100380.75;5040103;28;20056;-67
2022/11/21 06:35:36;;;;;;;12.70;10.70;;;;;;;16.32;98.25;100372.41;5042732;28;20045;-67
2022/11/21 06:38:04;;;;;;;11.77;10.55;;;;;;;16.26;97.48;100384.94;5043607;28;20053;-67
2022/11/21 06:40:31;;;;;;;12.73;11.45;;;;;;;16.11;97.72;100405.09;5045711;28;20492;-65
2022/11/21 06:42:57;;;;;;;18.48;13.00;;;;;;;16.04;97.75;100414.00;5041896;28;20048;-65
2022/11/21 06:45:24;;;;;;;19.98;11.20;;;;;;;15.95;97.23;100420.72;5051698;28;20053;-65
2022/11/21 06:47:51;;;;;;;16.25;12.77;;;;;;;15.88;97.96;100432.41;5041099;28;20076;-66
2022/11/21 06:50:18;;;;;;;15.52;13.18;;;;;;;15.91;97.83;100445.03;5055374;28;20041;-66
2022/11/21 06:52:45;;;;;;;19.55;12.77;;;;;;;15.84;98.05;100454.75;5047670;28;20048;-66
2022/11/21 06:55:12;;;;;;;22.27;16.90;;;;;;;15.85;97.89;100439.50;5045710;28;20049;-66
2022/11/21 06:57:39;;;;;;;23.33;16.05;;;;;;;15.88;98.41;100452.97;5036684;28;20049;-65
2022/11/21 07:00:06;;;;;;;24.38;13.70;;;;;;;15.87;98.34;100437.22;5053947;28;20059;-65
2022/11/21 07:02:33;;;;;;;19.17;12.85;;;;;;;15.92;98.42;100438.25;5052386;28;20526;-66
2022/11/21 07:05:00;;;;;;;19.08;14.02;;;;;;;15.98;98.63;100431.34;5042910;28;20049;-65
2022/11/21 07:07:26;;;;;;;24.55;14.10;;;;;;;15.97;98.56;100422.06;5034913;28;20041;-67
2022/11/21 07:09:53;;;;;;;21.23;17.58;;;;;;;16.00;98.44;100440.28;5043131;28;20061;-65
2022/11/21 07:15:06;;;;;;;27.63;14.75;;;;;;;15.99;98.67;100444.25;5036021;28;20491;-65
2022/11/21 07:17:33;;;;;;;34.42;14.73;;;;;;;15.97;98.67;100447.41;5046737;28;20054;-65
2022/11/21 07:20:00;;;;;;;26.13;15.10;;;;;;;15.97;98.52;100435.31;5043104;28;20056;-64
2022/11/21 07:22:26;;;;;;;24.08;13.82;;;;;;;15.94;98.57;100450.88;5036623;28;20057;-65
2022/11/21 07:24:53;;;;;;;26.38;15.20;;;;;;;15.93;98.69;100445.53;5042549;28;20049;-65
2022/11/21 07:27:20;;;;;;;24.05;14.15;;;;;;;15.93;98.66;100448.34;5040840;28;20057;-65
2022/11/21 07:29:47;;;;;;;31.20;14.95;;;;;;;15.96;98.66;100442.06;5046492;28;20050;-65
2022/11/21 07:32:14;;;;;;;29.73;15.15;;;;;;;15.96;98.76;100439.25;5042493;28;20049;-65
2022/11/21 07:34:40;;;;;;;38.00;18.35;;;;;;;15.93;98.46;100432.31;5036234;28;20050;-65
2022/11/21 07:37:07;;;;;;;22.30;14.90;;;;;;;15.93;98.37;100417.38;5048162;28;20357;-65
2022/11/21 07:39:35;;;;;;;26.83;16.00;;;;;;;15.72;98.81;100397.34;5048682;28;20056;-65
2022/11/21 07:42:02;;;;;;;30.20;19.40;;;;;;;15.85;98.72;100442.31;5037491;28;20060;-65
2022/11/21 07:44:29;;;;;;;35.70;17.42;;;;;;;15.86;98.49;100452.47;5046455;28;20052;-65
2022/11/21 07:46:55;;;;;;;32.70;17.85;;;;;;;15.90;98.60;100463.06;5043357;28;20069;-65
2022/11/21 07:49:22;;;;;;;25.23;17.20;;;;;;;15.93;98.62;100445.53;5031251;28;20042;-65
2022/11/21 07:51:49;;;;;;;37.38;17.95;;;;;;;15.92;98.70;100461.59;5043455;28;20479;-64
2022/11/21 07:54:16;;;;;;;29.83;16.35;;;;;;;15.96;98.53;100475.88;5042438;28;20507;-64
2022/11/21 07:56:43;;;;;;;20.67;18.35;;;;;;;15.93;98.71;100470.88;5039411;28;20132;-64
2022/11/21 07:59:10;;;;;;;24.17;20.50;;;;;;;15.95;98.20;100489.13;5046330;28;20041;-62
2022/11/21 08:01:37;;;;;;;41.78;21.38;;;;;;;15.95;98.58;100468.59;5035174;28;20049;-63
2022/11/21 08:04:10;;;;;;;28.23;15.65;;;;;;;15.92;97.84;100455.13;5042172;28;20083;-64
2022/11/21 08:06:37;;;;;;;33.03;19.98;;;;;;;15.71;97.70;100427.47;5047692;28;20834;-64
2022/11/21 08:09:04;;;;;;;27.95;19.88;;;;;;;15.90;98.07;100474.31;5034610;28;20058;-64
2022/11/21 08:11:31;;;;;;;30.10;17.08;;;;;;;15.91;97.78;100481.66;5047695;28;20056;-65
2022/11/21 08:13:58;;;;;;;28.50;15.90;;;;;;;15.83;97.69;100486.06;5040352;28;20056;-65
2022/11/21 08:16:26;;;;;;;54.42;20.65;;;;;;;15.83;97.78;100503.78;5045752;28;20045;-64
2022/11/21 08:18:53;;;;;;;44.83;17.95;;;;;;;15.88;97.61;100489.56;5045247;28;20586;-64
2022/11/21 08:21:20;;;;;;;43.30;17.88;;;;;;;15.86;97.52;100479.75;5042856;28;20087;-65
2022/11/21 08:23:48;;;;;;;59.13;22.10;;;;;;;15.90;97.38;100496.84;5049637;28;20056;-65
2022/11/21 08:26:15;;;;;;;41.33;23.52;;;;;;;15.90;97.59;100497.72;5043770;28;20053;-65
2022/11/21 08:28:42;;;;;;;40.38;17.90;;;;;;;15.86;97.62;100530.44;5047225;28;20426;-64
2022/11/21 08:31:09;;;;;;;27.55;15.88;;;;;;;15.85;97.51;100509.91;5024435;28;20052;-65
2022/11/21 08:33:35;;;;;;;38.53;18.35;;;;;;;15.77;96.97;100505.03;5038275;28;20053;-64
2022/11/21 08:36:06;;;;;;;36.25;17.15;;;;;;;15.64;96.66;100505.88;5037510;28;20044;-64
2022/11/21 08:38:33;;;;;;;44.22;23.10;;;;;;;15.60;96.92;100500.03;5044584;28;20041;-64
2022/11/21 08:43:45;;;;;;;50.60;18.98;;;;;;;15.52;97.40;100528.09;5053161;28;20415;-64
2022/11/21 08:46:12;;;;;;;41.97;21.10;;;;;;;15.51;97.47;100548.94;5047549;28;20096;-64
2022/11/21 08:48:38;;;;;;;22.27;15.25;;;;;;;15.45;97.44;100446.06;5043589;28;20052;-64
2022/11/21 08:51:05;;;;;;;29.00;18.92;;;;;;;15.39;96.39;100519.34;5042723;28;20045;-64
2022/11/21 08:53:32;;;;;;;30.10;15.85;;;;;;;15.19;95.41;100511.34;5041386;28;20443;-64
2022/11/21 08:55:59;;;;;;;23.00;16.15;;;;;;;15.12;95.15;100506.13;5033705;28;20053;-63
2022/11/21 08:58:30;;;;;;;43.70;20.45;;;;;;;15.02;94.79;100461.34;5049365;28;20504;-63
2022/11/21 09:00:58;;;;;;;39.47;15.82;;;;;;;14.92;94.41;100419.38;5045290;28;20045;-64
2022/11/21 09:03:25;;;;;;;31.40;15.43;;;;;;;14.84;94.24;100465.91;5045189;28;20044;-65
2022/11/21 09:05:58;;;;;;;37.63;16.60;;;;;;;14.71;94.31;100466.75;5047981;28;20079;-64
2022/11/21 09:08:25;;;;;;;35.92;16.45;;;;;;;14.69;94.43;100488.69;5047251;28;20057;-65
2022/11/21 09:10:52;;;;;;;29.73;16.30;;;;;;;14.67;94.64;100474.13;5037513;28;20048;-64
2022/11/21 09:13:18;;;;;;;30.48;16.83;;;;;;;14.66;94.63;100461.19;5036729;28;20416;-64
2022/11/21 09:18:30;;;;;;;33.10;16.30;;;;;;;14.73;95.28;100456.00;5040671;28;20053;-65
2022/11/21 09:20:57;;;;;;;29.05;16.98;;;;;;;14.76;95.32;100483.50;5030965;28;20049;-65
2022/11/21 09:23:25;;;;;;;36.35;17.58;;;;;;;14.80;95.28;100476.13;5045819;28;20483;-64
2022/11/21 09:25:52;;;;;;;29.70;16.88;;;;;;;14.89;95.22;100493.09;5041075;28;20045;-64
2022/11/21 09:28:18;;;;;;;31.42;16.67;;;;;;;14.87;95.36;100490.59;5043274;28;20049;-64
2022/11/21 09:30:45;;;;;;;42.20;17.17;;;;;;;14.96;95.70;100489.88;5036920;28;20041;-65
2022/11/21 09:33:15;;;;;;;39.05;21.15;;;;;;;14.99;95.41;100472.38;5043735;28;20499;-63
2022/11/21 09:35:43;;;;;;;46.60;17.33;;;;;;;15.00;95.55;100469.25;5046803;28;20094;-64
2022/11/21 09:38:11;;;;;;;39.17;17.67;;;;;;;15.02;95.37;100468.94;5031374;28;20057;-64
2022/11/21 09:40:43;;;;;;;38.67;17.55;;;;;;;14.99;94.99;100455.50;5066711;28;20056;-64
2022/11/21 09:43:27;;;;;;;36.92;16.52;;;;;;;15.06;95.36;100430.59;5035629;28;20068;-64
2022/11/21 09:46:16;;;;;;;37.65;16.73;;;;;;;15.12;95.65;100429.34;5034187;28;20056;-64
2022/11/21 09:48:57;;;;;;;33.25;16.15;;;;;;;15.22;95.29;100440.38;5046246;28;20053;-64
2022/11/21 09:51:28;;;;;;;32.55;15.80;;;;;;;15.31;95.48;100452.53;5038887;28;20056;-65
2022/11/21 09:54:19;;;;;;;35.63;15.30;;;;;;;15.39;95.20;100446.19;5042814;28;20060;-65
2022/11/21 09:56:47;;;;;;;34.17;17.83;;;;;;;15.47;95.30;100466.28;5045964;28;20053;-64
2022/11/21 09:59:36;;;;;;;28.25;15.20;;;;;;;15.47;94.53;100443.78;5030605;28;20057;-64
2022/11/21 10:02:14;;;;;;;36.40;14.70;;;;;;;15.46;94.48;100445.75;5037405;28;20060;-64
2022/11/21 10:04:42;;;;;;;42.08;17.02;;;;;;;15.44;94.32;100475.38;5040423;28;20140;-64
2022/11/21 10:07:26;;;;;;;44.88;18.48;;;;;;;15.21;94.00;100458.41;5047204;28;20056;-64
2022/11/21 10:10:16;;;;;;;39.00;17.35;;;;;;;14.89;93.20;100454.56;5045394;28;20045;-63
2022/11/21 10:12:46;;;;;;;25.25;17.42;;;;;;;14.67;93.78;100460.06;5046282;28;20064;-64
2022/11/21 10:15:24;;;;;;;34.28;19.20;;;;;;;14.44;93.73;100457.06;5042892;28;20053;-64
2022/11/21 10:18:39;;;;;;;43.17;17.95;;;;;;;14.30;94.12;100470.25;5050956;28;20396;-64
2022/11/21 10:21:14;;;;;;;33.90;16.77;;;;;;;14.37;95.55;100473.50;5041623;28;20049;-64
2022/11/21 10:24:03;;;;;;;37.40;17.77;;;;;;;14.50;95.99;100471.06;5050566;28;20135;-64
2022/11/21 10:26:43;;;;;;;29.80;17.40;;;;;;;14.61;96.26;100481.81;5042263;28;20053;-63
2022/11/21 10:29:26;;;;;;;41.97;22.90;;;;;;;14.78;96.79;100483.19;5054523;28;20060;-64
2022/11/21 10:31:57;;;;;;;39.88;18.92;;;;;;;15.50;99.17;100466.50;5038969;28;20061;-64
2022/11/21 10:34:28;;;;;;;46.35;20.45;;;;;;;16.85;100.00;100460.06;5042053;28;20057;-63
2022/11/21 10:36:59;;;;;;;28.48;14.13;;;;;;;18.00;100.00;100450.38;5044574;28;20136;-64
2022/11/21 10:39:36;;;;;;;38.85;16.40;;;;;;;17.86;99.73;100463.84;5044658;28;20065;-63
2022/11/21 10:45:14;;;;;;;33.60;14.43;;;;;;;17.34;98.65;100473.03;5038880;28;20053;-63
2022/11/21 10:45:53;;;;;;;32.72;15.27;;;;;;;16.75;97.42;100472.44;5012395;28;20441;-63
2022/11/21 10:48:19;;;;;;;26.88;13.38;;;;;;;16.52;95.76;100468.84;5016019;28;20052;-65
2022/11/21 10:50:58;;;;;;;25.38;13.90;;;;;;;16.32;95.08;100479.47;5029879;28;20044;-63
2022/11/21 10:56:18;;;;;;;30.92;17.45;;;;;;;15.95;93.52;100468.59;5038609;28;20099;-64
2022/11/21 10:58:58;;;;;;;28.38;15.55;;;;;;;15.58;92.98;100498.69;5041840;28;20126;-63
2022/11/21 11:01:33;;;;;;;26.70;14.70;;;;;;;15.28;92.25;100503.84;5039705;28;20049;-64
2022/11/21 11:04:09;;;;;;;34.25;17.33;;;;;;;15.05;91.59;100516.13;5053047;28;20048;-63
2022/11/21 11:06:54;;;;;;;34.33;16.52;;;;;;;15.01;92.06;100515.06;5045639;28;20458;-64
2022/11/21 11:09:27;;;;;;;14.55;12.15;;;;;;;15.01;92.50;100520.69;5048164;28;20139;-64
2022/11/21 11:13:32;;;;;;;34.00;17.63;;;;;;;15.19;94.29;100510.50;5048694;28;20057;-63
2022/11/21 11:15:19;;;;;;;;;;;;;;;16.89;100.00;100517.47;5035863;28;20053;-64
2022/11/21 11:17:52;;;;;;;22.92;12.90;;;;;;;18.23;100.00;100470.81;5047711;28;19936;-63
2022/11/21 11:20:40;;;;;;;24.98;12.85;;;;;;;19.26;97.96;100476.50;5052055;28;20079;-63
2022/11/21 11:23:22;;;;;;;26.00;11.18;;;;;;;19.69;92.16;100464.91;5040846;28;20499;-63
2022/11/21 11:25:51;;;;;;;15.20;13.90;;;;;;;19.88;92.08;100475.78;5048620;28;20053;-63
2022/11/21 11:28:19;;;;;;;32.03;14.55;;;;;;;20.46;91.27;100458.91;5044950;28;20056;-63
2022/11/21 11:30:50;;;;;;;27.13;14.90;;;;;;;21.32;91.05;100478.97;5042600;28;20045;-63
2022/11/21 11:33:35;;;;;;;22.17;14.65;;;;;;;22.22;86.25;100492.00;5047154;28;20045;-63
2022/11/21 11:36:13;;;;;;;18.98;13.27;;;;;;;23.14;88.70;100505.16;5044972;28;20053;-63
2022/11/21 11:38:51;;;;;;;19.92;14.32;;;;;;;23.35;85.07;100489.81;5042077;28;20048;-63
2022/11/21 11:47:29;;;;;;;17.98;14.80;;;;;;;23.63;85.26;100484.00;5042677;28;20488;-63
2022/11/21 11:47:38;;;;;;;25.33;16.95;;;;;;;24.76;82.92;100484.84;5041556;28;20057;-63
2022/11/21 11:50:15;;;;;;;26.60;18.90;;;;;;;24.88;83.23;100474.44;5040013;28;20690;-63